sensor_id;sensor_type;location;lat;lon;timestamp;temperature;humidity
46590;DHT22;32313;48.722;9.362;2023-05-10T00:00:17;12.90;99.90
46590;DHT22;32313;48.722;9.362;2023-05-10T00:02:43;12.90;99.90
46590;DHT22;32313;48.722;9.362;2023-05-10T00:05:09;12.90;99.90
46590;DHT22;32313;48.722;9.362;2023-05-10T00:07:35;12.90;99.90
46590;DHT22;32313;48.722;9.362;2023-05-10T00:10:00;12.90;99.90
46590;DHT22;32313;48.722;9.362;2023-05-10T00:12:26;12.90;99.90
46590;DHT22;32313;48.722;9.362;2023-05-10T00:14:51;12.80;99.90
46590;DHT22;32313;48.722;9.362;2023-05-10T00:17:17;12.80;99.90
46590;DHT22;32313;48.722;9.362;2023-05-10T00:19:43;12.80;99.90
46590;DHT22;32313;48.722;9.362;2023-05-10T00:22:08;12.80;99.90
46590;DHT22;32313;48.722;9.362;2023-05-10T00:24:34;12.90;99.90
46590;DHT22;32313;48.722;9.362;2023-05-10T00:27:00;12.90;99.90
46590;DHT22;32313;48.722;9.362;2023-05-10T00:29:26;12.90;99.90
46590;DHT22;32313;48.722;9.362;2023-05-10T00:31:53;12.90;99.90
46590;DHT22;32313;48.722;9.362;2023-05-10T00:34:19;13.00;99.90
46590;DHT22;32313;48.722;9.362;2023-05-10T00:36:44;13.00;99.90
46590;DHT22;32313;48.722;9.362;2023-05-10T00:39:10;12.90;99.90
46590;DHT22;32313;48.722;9.362;2023-05-10T00:41:36;12.90;99.90
46590;DHT22;32313;48.722;9.362;2023-05-10T00:44:03;12.90;99.90
46590;DHT22;32313;48.722;9.362;2023-05-10T00:46:29;12.90;99.90
46590;DHT22;32313;48.722;9.362;2023-05-10T00:48:55;12.80;99.90
46590;DHT22;32313;48.722;9.362;2023-05-10T00:51:21;12.80;99.90
46590;DHT22;32313;48.722;9.362;2023-05-10T00:53:48;12.70;99.90
46590;DHT22;32313;48.722;9.362;2023-05-10T00:56:15;12.60;99.90
46590;DHT22;32313;48.722;9.362;2023-05-10T00:58:41;12.50;99.90
46590;DHT22;32313;48.722;9.362;2023-05-10T01:01:08;12.40;99.90
46590;DHT22;32313;48.722;9.362;2023-05-10T01:03:35;12.40;99.90
46590;DHT22;32313;48.722;9.362;2023-05-10T01:06:01;12.40;99.90
46590;DHT22;32313;48.722;9.362;2023-05-10T01:08:27;12.30;99.90
46590;DHT22;32313;48.722;9.362;2023-05-10T01:10:54;12.20;99.90
46590;DHT22;32313;48.722;9.362;2023-05-10T01:13:33;12.20;99.90
46590;DHT22;32313;48.722;9.362;2023-05-10T01:16:00;12.20;99.90
46590;DHT22;32313;48.722;9.362;2023-05-10T01:18:29;12.10;99.90
46590;DHT22;32313;48.722;9.362;2023-05-10T01:36:16;12.00;99.90
46590;DHT22;32313;48.722;9.362;2023-05-10T01:41:24;11.90;99.90
46590;DHT22;32313;48.722;9.362;2023-05-10T01:44:11;11.90;99.90
46590;DHT22;32313;48.722;9.362;2023-05-10T01:46:40;11.90;99.90
46590;DHT22;32313;48.722;9.362;2023-05-10T01:49:18;11.90;99.90
46590;DHT22;32313;48.722;9.362;2023-05-10T01:51:50;11.90;99.90
46590;DHT22;32313;48.722;9.362;2023-05-10T01:54:20;11.90;99.90
46590;DHT22;32313;48.722;9.362;2023-05-10T01:56:52;11.90;99.90
46590;DHT22;32313;48.722;9.362;2023-05-10T01:59:21;11.80;99.90
46590;DHT22;32313;48.722;9.362;2023-05-10T02:01:48;11.80;99.90
46590;DHT22;32313;48.722;9.362;2023-05-10T02:04:17;11.80;99.90
46590;DHT22;32313;48.722;9.362;2023-05-10T02:06:45;11.80;99.90
46590;DHT22;32313;48.722;9.362;2023-05-10T02:09:13;11.80;99.90
46590;DHT22;32313;48.722;9.362;2023-05-10T02:11:41;11.80;99.90
46590;DHT22;32313;48.722;9.362;2023-05-10T02:14:09;11.80;99.90
46590;DHT22;32313;48.722;9.362;2023-05-10T02:16:36;11.80;99.90
46590;DHT22;32313;48.722;9.362;2023-05-10T02:19:03;11.70;99.90
46590;DHT22;32313;48.722;9.362;2023-05-10T02:21:29;11.70;99.90
46590;DHT22;32313;48.722;9.362;2023-05-10T02:23:57;11.60;99.90
46590;DHT22;32313;48.722;9.362;2023-05-10T02:26:24;11.60;99.90
46590;DHT22;32313;48.722;9.362;2023-05-10T02:28:52;11.60;99.90
46590;DHT22;32313;48.722;9.362;2023-05-10T02:31:19;11.50;99.90
46590;DHT22;32313;48.722;9.362;2023-05-10T02:33:46;11.50;99.90
46590;DHT22;32313;48.722;9.362;2023-05-10T02:36:13;11.50;99.90
46590;DHT22;32313;48.722;9.362;2023-05-10T02:38:40;11.40;99.90
46590;DHT22;32313;48.722;9.362;2023-05-10T02:41:07;11.40;99.90
46590;DHT22;32313;48.722;9.362;2023-05-10T02:43:34;11.40;99.90
46590;DHT22;32313;48.722;9.362;2023-05-10T02:46:01;11.40;99.90
46590;DHT22;32313;48.722;9.362;2023-05-10T02:48:27;11.40;99.90
46590;DHT22;32313;48.722;9.362;2023-05-10T02:50:55;11.40;99.90
46590;DHT22;32313;48.722;9.362;2023-05-10T02:53:27;11.40;99.90
46590;DHT22;32313;48.722;9.362;2023-05-10T02:55:58;11.30;99.90
46590;DHT22;32313;48.722;9.362;2023-05-10T02:58:25;11.30;99.90
46590;DHT22;32313;48.722;9.362;2023-05-10T03:00:50;11.30;99.90
46590;DHT22;32313;48.722;9.362;2023-05-10T03:03:16;11.30;99.90
46590;DHT22;32313;48.722;9.362;2023-05-10T03:05:42;11.40;99.90
46590;DHT22;32313;48.722;9.362;2023-05-10T03:08:07;11.40;99.90
46590;DHT22;32313;48.722;9.362;2023-05-10T03:10:41;11.40;99.90
46590;DHT22;32313;48.722;9.362;2023-05-10T03:13:29;11.40;99.90
46590;DHT22;32313;48.722;9.362;2023-05-10T03:16:01;11.40;99.90
46590;DHT22;32313;48.722;9.362;2023-05-10T03:18:48;11.40;99.90
46590;DHT22;32313;48.722;9.362;2023-05-10T03:21:17;11.40;99.90
46590;DHT22;32313;48.722;9.362;2023-05-10T03:23:50;11.40;99.90
46590;DHT22;32313;48.722;9.362;2023-05-10T03:26:35;11.40;99.90
46590;DHT22;32313;48.722;9.362;2023-05-10T03:29:08;11.40;99.90
46590;DHT22;32313;48.722;9.362;2023-05-10T03:31:35;11.40;99.90
46590;DHT22;32313;48.722;9.362;2023-05-10T03:34:01;11.40;99.90
46590;DHT22;32313;48.722;9.362;2023-05-10T03:36:27;11.40;99.90
46590;DHT22;32313;48.722;9.362;2023-05-10T03:38:53;11.40;99.90
46590;DHT22;32313;48.722;9.362;2023-05-10T03:41:20;11.30;99.90
46590;DHT22;32313;48.722;9.362;2023-05-10T03:43:47;11.30;99.90
46590;DHT22;32313;48.722;9.362;2023-05-10T03:46:12;11.30;99.90
46590;DHT22;32313;48.722;9.362;2023-05-10T03:48:38;11.30;99.90
46590;DHT22;32313;48.722;9.362;2023-05-10T03:51:04;11.40;99.90
46590;DHT22;32313;48.722;9.362;2023-05-10T03:53:30;11.40;99.90
46590;DHT22;32313;48.722;9.362;2023-05-10T03:55:56;11.40;99.90
46590;DHT22;32313;48.722;9.362;2023-05-10T03:58:21;11.50;99.90
46590;DHT22;32313;48.722;9.362;2023-05-10T04:00:47;11.50;99.90
46590;DHT22;32313;48.722;9.362;2023-05-10T04:03:14;11.50;99.90
46590;DHT22;32313;48.722;9.362;2023-05-10T04:05:40;11.50;99.90
46590;DHT22;32313;48.722;9.362;2023-05-10T04:08:06;11.50;99.90
46590;DHT22;32313;48.722;9.362;2023-05-10T04:10:32;11.50;99.90
46590;DHT22;32313;48.722;9.362;2023-05-10T04:12:57;11.50;99.90
46590;DHT22;32313;48.722;9.362;2023-05-10T04:15:24;11.60;99.90
46590;DHT22;32313;48.722;9.362;2023-05-10T04:17:50;11.60;99.90
46590;DHT22;32313;48.722;9.362;2023-05-10T04:20:16;11.60;99.90
46590;DHT22;32313;48.722;9.362;2023-05-10T04:22:42;11.60;99.90
46590;DHT22;32313;48.722;9.362;2023-05-10T04:25:08;11.60;99.90
46590;DHT22;32313;48.722;9.362;2023-05-10T04:27:34;11.60;99.90
46590;DHT22;32313;48.722;9.362;2023-05-10T04:29:59;11.60;99.90
46590;DHT22;32313;48.722;9.362;2023-05-10T04:32:25;11.60;99.90
46590;DHT22;32313;48.722;9.362;2023-05-10T04:34:51;11.70;99.90
46590;DHT22;32313;48.722;9.362;2023-05-10T04:37:17;11.70;99.90
46590;DHT22;32313;48.722;9.362;2023-05-10T04:39:43;11.70;99.90
46590;DHT22;32313;48.722;9.362;2023-05-10T04:42:09;11.70;99.90
46590;DHT22;32313;48.722;9.362;2023-05-10T04:44:35;11.70;99.90
46590;DHT22;32313;48.722;9.362;2023-05-10T04:47:01;11.70;99.90
46590;DHT22;32313;48.722;9.362;2023-05-10T04:49:29;11.70;99.90
46590;DHT22;32313;48.722;9.362;2023-05-10T04:51:55;11.80;99.90
46590;DHT22;32313;48.722;9.362;2023-05-10T04:54:21;11.80;99.90
46590;DHT22;32313;48.722;9.362;2023-05-10T04:56:46;11.80;99.90
46590;DHT22;32313;48.722;9.362;2023-05-10T04:59:12;11.90;99.90
46590;DHT22;32313;48.722;9.362;2023-05-10T05:01:38;11.90;99.90
46590;DHT22;32313;48.722;9.362;2023-05-10T05:04:03;12.00;99.90
46590;DHT22;32313;48.722;9.362;2023-05-10T05:06:29;12.00;99.90
46590;DHT22;32313;48.722;9.362;2023-05-10T05:08:55;12.00;99.90
46590;DHT22;32313;48.722;9.362;2023-05-10T05:11:20;12.10;99.90
46590;DHT22;32313;48.722;9.362;2023-05-10T05:13:47;12.20;99.90
46590;DHT22;32313;48.722;9.362;2023-05-10T05:16:13;12.20;99.90
46590;DHT22;32313;48.722;9.362;2023-05-10T05:18:38;12.40;99.90
46590;DHT22;32313;48.722;9.362;2023-05-10T05:21:16;12.40;99.90
46590;DHT22;32313;48.722;9.362;2023-05-10T05:23:42;12.50;99.90
46590;DHT22;32313;48.722;9.362;2023-05-10T05:26:08;12.60;99.90
46590;DHT22;32313;48.722;9.362;2023-05-10T05:28:34;12.60;99.90
46590;DHT22;32313;48.722;9.362;2023-05-10T05:31:06;12.60;99.90
46590;DHT22;32313;48.722;9.362;2023-05-10T05:33:36;12.70;99.90
46590;DHT22;32313;48.722;9.362;2023-05-10T05:36:03;12.70;99.90
46590;DHT22;32313;48.722;9.362;2023-05-10T05:38:29;12.80;99.90
46590;DHT22;32313;48.722;9.362;2023-05-10T05:40:55;12.90;99.90
46590;DHT22;32313;48.722;9.362;2023-05-10T05:43:20;12.90;99.90
46590;DHT22;32313;48.722;9.362;2023-05-10T05:45:46;12.90;99.90
46590;DHT22;32313;48.722;9.362;2023-05-10T05:48:12;12.90;99.90
46590;DHT22;32313;48.722;9.362;2023-05-10T05:50:37;12.90;99.90
46590;DHT22;32313;48.722;9.362;2023-05-10T05:53:03;12.90;99.90
46590;DHT22;32313;48.722;9.362;2023-05-10T05:55:29;12.90;99.90
46590;DHT22;32313;48.722;9.362;2023-05-10T05:57:57;12.90;99.90
46590;DHT22;32313;48.722;9.362;2023-05-10T06:00:23;13.00;99.90
46590;DHT22;32313;48.722;9.362;2023-05-10T06:02:48;13.00;99.90
46590;DHT22;32313;48.722;9.362;2023-05-10T06:05:14;13.00;99.90
46590;DHT22;32313;48.722;9.362;2023-05-10T06:07:40;13.00;99.90
46590;DHT22;32313;48.722;9.362;2023-05-10T06:10:09;12.90;99.90
46590;DHT22;32313;48.722;9.362;2023-05-10T06:12:36;12.90;99.90
46590;DHT22;32313;48.722;9.362;2023-05-10T06:15:02;12.90;99.90
46590;DHT22;32313;48.722;9.362;2023-05-10T06:17:28;12.90;99.90
46590;DHT22;32313;48.722;9.362;2023-05-10T06:19:54;12.90;99.90
46590;DHT22;32313;48.722;9.362;2023-05-10T06:22:20;13.10;99.90
46590;DHT22;32313;48.722;9.362;2023-05-10T06:24:47;13.10;99.90
46590;DHT22;32313;48.722;9.362;2023-05-10T06:27:12;13.20;99.90
46590;DHT22;32313;48.722;9.362;2023-05-10T06:29:38;13.20;99.90
46590;DHT22;32313;48.722;9.362;2023-05-10T06:32:04;13.20;99.90
46590;DHT22;32313;48.722;9.362;2023-05-10T06:34:30;13.20;99.90
46590;DHT22;32313;48.722;9.362;2023-05-10T06:36:57;13.30;99.90
46590;DHT22;32313;48.722;9.362;2023-05-10T06:39:23;13.30;99.90
46590;DHT22;32313;48.722;9.362;2023-05-10T06:41:48;13.40;99.90
46590;DHT22;32313;48.722;9.362;2023-05-10T06:44:14;13.30;99.90
46590;DHT22;32313;48.722;9.362;2023-05-10T06:46:40;13.40;99.90
46590;DHT22;32313;48.722;9.362;2023-05-10T06:49:06;13.50;99.90
46590;DHT22;32313;48.722;9.362;2023-05-10T06:51:32;13.50;99.90
46590;DHT22;32313;48.722;9.362;2023-05-10T06:53:58;13.50;99.90
46590;DHT22;32313;48.722;9.362;2023-05-10T06:56:24;13.60;99.90
46590;DHT22;32313;48.722;9.362;2023-05-10T06:58:49;13.60;99.90
46590;DHT22;32313;48.722;9.362;2023-05-10T07:01:15;13.70;99.90
46590;DHT22;32313;48.722;9.362;2023-05-10T07:03:41;13.70;99.90
46590;DHT22;32313;48.722;9.362;2023-05-10T07:06:06;13.70;99.90
46590;DHT22;32313;48.722;9.362;2023-05-10T07:08:36;13.60;99.90
46590;DHT22;32313;48.722;9.362;2023-05-10T07:11:02;13.60;99.90
46590;DHT22;32313;48.722;9.362;2023-05-10T07:13:32;13.60;99.90
46590;DHT22;32313;48.722;9.362;2023-05-10T07:15:59;13.60;99.90
46590;DHT22;32313;48.722;9.362;2023-05-10T07:18:25;13.60;99.90
46590;DHT22;32313;48.722;9.362;2023-05-10T07:20:51;13.60;99.90
46590;DHT22;32313;48.722;9.362;2023-05-10T07:23:17;13.70;99.90
46590;DHT22;32313;48.722;9.362;2023-05-10T07:25:47;13.60;99.90
46590;DHT22;32313;48.722;9.362;2023-05-10T07:28:14;13.60;99.90
46590;DHT22;32313;48.722;9.362;2023-05-10T07:30:40;13.60;99.90
46590;DHT22;32313;48.722;9.362;2023-05-10T07:33:08;13.70;99.90
46590;DHT22;32313;48.722;9.362;2023-05-10T07:35:34;13.70;99.90
46590;DHT22;32313;48.722;9.362;2023-05-10T07:38:00;13.80;99.90
46590;DHT22;32313;48.722;9.362;2023-05-10T07:40:26;13.90;99.90
46590;DHT22;32313;48.722;9.362;2023-05-10T07:42:51;14.10;99.90
46590;DHT22;32313;48.722;9.362;2023-05-10T07:45:18;14.30;99.90
46590;DHT22;32313;48.722;9.362;2023-05-10T07:47:43;14.50;99.90
46590;DHT22;32313;48.722;9.362;2023-05-10T07:50:09;14.60;99.90
46590;DHT22;32313;48.722;9.362;2023-05-10T07:52:35;14.80;99.90
46590;DHT22;32313;48.722;9.362;2023-05-10T07:55:01;15.00;99.90
46590;DHT22;32313;48.722;9.362;2023-05-10T07:57:26;15.10;99.90
46590;DHT22;32313;48.722;9.362;2023-05-10T07:59:52;15.20;99.90
46590;DHT22;32313;48.722;9.362;2023-05-10T08:02:18;15.10;99.90
46590;DHT22;32313;48.722;9.362;2023-05-10T08:04:43;15.10;99.90
46590;DHT22;32313;48.722;9.362;2023-05-10T08:07:09;15.20;99.90
46590;DHT22;32313;48.722;9.362;2023-05-10T08:09:51;15.30;99.90
46590;DHT22;32313;48.722;9.362;2023-05-10T08:12:17;15.30;99.90
46590;DHT22;32313;48.722;9.362;2023-05-10T08:14:42;15.30;99.90
46590;DHT22;32313;48.722;9.362;2023-05-10T08:17:08;15.30;99.90
46590;DHT22;32313;48.722;9.362;2023-05-10T08:19:34;15.40;99.90
46590;DHT22;32313;48.722;9.362;2023-05-10T08:22:00;15.30;99.90
46590;DHT22;32313;48.722;9.362;2023-05-10T08:24:26;15.20;99.90
46590;DHT22;32313;48.722;9.362;2023-05-10T08:26:51;15.20;99.90
46590;DHT22;32313;48.722;9.362;2023-05-10T08:29:17;15.00;99.90
46590;DHT22;32313;48.722;9.362;2023-05-10T08:31:43;15.10;99.90
46590;DHT22;32313;48.722;9.362;2023-05-10T08:34:09;15.20;99.90
46590;DHT22;32313;48.722;9.362;2023-05-10T08:36:34;15.20;99.90
46590;DHT22;32313;48.722;9.362;2023-05-10T08:39:00;15.30;99.90
46590;DHT22;32313;48.722;9.362;2023-05-10T08:41:26;15.30;99.90
46590;DHT22;32313;48.722;9.362;2023-05-10T08:43:55;15.40;99.90
46590;DHT22;32313;48.722;9.362;2023-05-10T08:46:22;15.40;99.90
46590;DHT22;32313;48.722;9.362;2023-05-10T08:48:49;15.50;99.90
46590;DHT22;32313;48.722;9.362;2023-05-10T08:51:18;15.60;99.90
46590;DHT22;32313;48.722;9.362;2023-05-10T08:53:45;15.70;99.90
46590;DHT22;32313;48.722;9.362;2023-05-10T08:56:11;15.70;99.90
46590;DHT22;32313;48.722;9.362;2023-05-10T08:58:37;15.90;99.90
46590;DHT22;32313;48.722;9.362;2023-05-10T09:01:04;16.10;99.90
46590;DHT22;32313;48.722;9.362;2023-05-10T09:03:30;16.20;99.90
46590;DHT22;32313;48.722;9.362;2023-05-10T09:05:57;16.30;99.90
46590;DHT22;32313;48.722;9.362;2023-05-10T09:08:26;16.30;99.90
46590;DHT22;32313;48.722;9.362;2023-05-10T09:10:53;16.20;99.90
46590;DHT22;32313;48.722;9.362;2023-05-10T09:13:19;16.10;99.90
46590;DHT22;32313;48.722;9.362;2023-05-10T09:15:47;15.90;99.90
46590;DHT22;32313;48.722;9.362;2023-05-10T09:18:13;15.90;99.90
46590;DHT22;32313;48.722;9.362;2023-05-10T09:20:39;15.90;99.90
46590;DHT22;32313;48.722;9.362;2023-05-10T09:23:05;15.90;99.90
46590;DHT22;32313;48.722;9.362;2023-05-10T09:25:32;16.10;99.90
46590;DHT22;32313;48.722;9.362;2023-05-10T09:27:59;16.10;99.90
46590;DHT22;32313;48.722;9.362;2023-05-10T09:30:30;16.10;99.90
46590;DHT22;32313;48.722;9.362;2023-05-10T09:32:57;15.90;99.90
46590;DHT22;32313;48.722;9.362;2023-05-10T09:35:25;15.70;99.90
46590;DHT22;32313;48.722;9.362;2023-05-10T09:37:52;15.40;99.90
46590;DHT22;32313;48.722;9.362;2023-05-10T09:40:27;14.80;99.90
46590;DHT22;32313;48.722;9.362;2023-05-10T09:43:01;14.10;99.90
46590;DHT22;32313;48.722;9.362;2023-05-10T09:45:29;13.50;99.90
46590;DHT22;32313;48.722;9.362;2023-05-10T09:47:55;13.30;99.90
46590;DHT22;32313;48.722;9.362;2023-05-10T09:50:21;13.20;99.90
46590;DHT22;32313;48.722;9.362;2023-05-10T09:52:52;13.30;99.90
46590;DHT22;32313;48.722;9.362;2023-05-10T09:55:22;13.20;99.90
46590;DHT22;32313;48.722;9.362;2023-05-10T09:57:49;13.10;99.90
46590;DHT22;32313;48.722;9.362;2023-05-10T10:00:23;13.10;99.90
46590;DHT22;32313;48.722;9.362;2023-05-10T10:02:59;13.00;99.90
46590;DHT22;32313;48.722;9.362;2023-05-10T10:07:57;13.10;99.90
46590;DHT22;32313;48.722;9.362;2023-05-10T10:10:27;13.20;99.90
46590;DHT22;32313;48.722;9.362;2023-05-10T10:12:54;13.40;99.90
46590;DHT22;32313;48.722;9.362;2023-05-10T10:15:23;13.80;99.90
46590;DHT22;32313;48.722;9.362;2023-05-10T10:17:50;14.10;99.90
46590;DHT22;32313;48.722;9.362;2023-05-10T10:20:17;14.50;99.90
46590;DHT22;32313;48.722;9.362;2023-05-10T10:22:43;14.90;99.90
46590;DHT22;32313;48.722;9.362;2023-05-10T10:25:11;15.20;99.90
46590;DHT22;32313;48.722;9.362;2023-05-10T10:33:10;16.90;99.90
46590;DHT22;32313;48.722;9.362;2023-05-10T10:35:39;17.60;99.90
46590;DHT22;32313;48.722;9.362;2023-05-10T10:38:08;17.80;99.90
46590;DHT22;32313;48.722;9.362;2023-05-10T10:40:34;18.10;99.90
46590;DHT22;32313;48.722;9.362;2023-05-10T10:43:26;18.40;99.90
46590;DHT22;32313;48.722;9.362;2023-05-10T10:46:15;18.70;99.90
46590;DHT22;32313;48.722;9.362;2023-05-10T10:49:09;18.40;99.90
46590;DHT22;32313;48.722;9.362;2023-05-10T10:51:38;18.10;99.90
46590;DHT22;32313;48.722;9.362;2023-05-10T10:54:11;18.00;99.90
46590;DHT22;32313;48.722;9.362;2023-05-10T10:56:37;17.80;99.90
46590;DHT22;32313;48.722;9.362;2023-05-10T10:59:03;17.50;99.90
46590;DHT22;32313;48.722;9.362;2023-05-10T11:01:35;17.10;99.90
46590;DHT22;32313;48.722;9.362;2023-05-10T11:06:33;16.50;99.90
46590;DHT22;32313;48.722;9.362;2023-05-10T11:09:07;16.30;99.90
46590;DHT22;32313;48.722;9.362;2023-05-10T11:11:34;16.40;99.90
46590;DHT22;32313;48.722;9.362;2023-05-10T11:14:04;16.40;99.90
46590;DHT22;32313;48.722;9.362;2023-05-10T11:16:41;16.60;99.90
46590;DHT22;32313;48.722;9.362;2023-05-10T11:19:13;16.70;99.90
46590;DHT22;32313;48.722;9.362;2023-05-10T11:21:51;16.80;99.90
46590;DHT22;32313;48.722;9.362;2023-05-10T11:24:21;16.90;99.90
46590;DHT22;32313;48.722;9.362;2023-05-10T11:26:50;16.80;99.90
46590;DHT22;32313;48.722;9.362;2023-05-10T11:29:16;16.70;99.90
46590;DHT22;32313;48.722;9.362;2023-05-10T11:31:45;16.30;99.90
46590;DHT22;32313;48.722;9.362;2023-05-10T11:34:22;15.70;99.90
46590;DHT22;32313;48.722;9.362;2023-05-10T11:36:51;15.30;99.90
46590;DHT22;32313;48.722;9.362;2023-05-10T11:39:17;14.90;99.90
46590;DHT22;32313;48.722;9.362;2023-05-10T11:41:42;14.70;99.90
46590;DHT22;32313;48.722;9.362;2023-05-10T11:44:09;14.60;99.90
46590;DHT22;32313;48.722;9.362;2023-05-10T11:46:36;14.40;99.90
46590;DHT22;32313;48.722;9.362;2023-05-10T11:49:02;14.30;99.90
46590;DHT22;32313;48.722;9.362;2023-05-10T11:51:32;14.20;99.90
46590;DHT22;32313;48.722;9.362;2023-05-10T11:53:58;14.20;99.90
46590;DHT22;32313;48.722;9.362;2023-05-10T11:56:24;14.20;99.90
46590;DHT22;32313;48.722;9.362;2023-05-10T11:58:56;14.20;99.90
46590;DHT22;32313;48.722;9.362;2023-05-10T12:01:24;14.20;99.90
46590;DHT22;32313;48.722;9.362;2023-05-10T12:03:50;14.20;99.90
46590;DHT22;32313;48.722;9.362;2023-05-10T12:06:18;14.20;99.90
46590;DHT22;32313;48.722;9.362;2023-05-10T12:08:45;14.10;99.90
46590;DHT22;32313;48.722;9.362;2023-05-10T12:11:12;13.90;99.90
46590;DHT22;32313;48.722;9.362;2023-05-10T12:13:43;13.60;99.90
46590;DHT22;32313;48.722;9.362;2023-05-10T12:16:19;13.50;99.90
46590;DHT22;32313;48.722;9.362;2023-05-10T12:18:49;13.40;99.90
46590;DHT22;32313;48.722;9.362;2023-05-10T12:21:16;13.20;99.90
46590;DHT22;32313;48.722;9.362;2023-05-10T12:23:42;13.00;99.90
46590;DHT22;32313;48.722;9.362;2023-05-10T12:26:10;12.90;99.90
46590;DHT22;32313;48.722;9.362;2023-05-10T12:28:37;12.90;99.90
46590;DHT22;32313;48.722;9.362;2023-05-10T12:31:03;12.90;99.90
46590;DHT22;32313;48.722;9.362;2023-05-10T12:33:40;13.00;99.90
46590;DHT22;32313;48.722;9.362;2023-05-10T12:36:10;13.10;99.90
46590;DHT22;32313;48.722;9.362;2023-05-10T12:38:38;13.30;99.90
46590;DHT22;32313;48.722;9.362;2023-05-10T12:41:12;13.30;99.90
46590;DHT22;32313;48.722;9.362;2023-05-10T12:43:39;13.40;99.90
46590;DHT22;32313;48.722;9.362;2023-05-10T12:46:09;13.70;99.90
46590;DHT22;32313;48.722;9.362;2023-05-10T12:48:36;13.90;99.90
46590;DHT22;32313;48.722;9.362;2023-05-10T12:51:03;14.10;99.90
46590;DHT22;32313;48.722;9.362;2023-05-10T12:53:29;14.40;99.90
46590;DHT22;32313;48.722;9.362;2023-05-10T12:55:55;14.50;99.90
46590;DHT22;32313;48.722;9.362;2023-05-10T12:58:21;14.50;99.90
46590;DHT22;32313;48.722;9.362;2023-05-10T13:00:47;14.30;99.90
46590;DHT22;32313;48.722;9.362;2023-05-10T13:03:13;14.30;99.90
46590;DHT22;32313;48.722;9.362;2023-05-10T13:05:38;14.30;99.90
46590;DHT22;32313;48.722;9.362;2023-05-10T13:08:04;14.20;99.90
46590;DHT22;32313;48.722;9.362;2023-05-10T13:10:31;14.10;99.90
46590;DHT22;32313;48.722;9.362;2023-05-10T13:12:57;14.10;99.90
46590;DHT22;32313;48.722;9.362;2023-05-10T13:15:23;14.00;99.90
46590;DHT22;32313;48.722;9.362;2023-05-10T13:17:49;13.90;99.90
46590;DHT22;32313;48.722;9.362;2023-05-10T13:20:15;13.90;99.90
46590;DHT22;32313;48.722;9.362;2023-05-10T13:22:42;13.90;99.90
46590;DHT22;32313;48.722;9.362;2023-05-10T13:25:08;13.90;99.90
46590;DHT22;32313;48.722;9.362;2023-05-10T13:27:34;13.90;99.90
46590;DHT22;32313;48.722;9.362;2023-05-10T13:30:00;13.90;99.90
46590;DHT22;32313;48.722;9.362;2023-05-10T13:32:26;13.90;99.90
46590;DHT22;32313;48.722;9.362;2023-05-10T13:34:52;14.10;99.90
46590;DHT22;32313;48.722;9.362;2023-05-10T13:37:18;14.20;99.90
46590;DHT22;32313;48.722;9.362;2023-05-10T13:39:43;14.50;99.90
46590;DHT22;32313;48.722;9.362;2023-05-10T13:42:09;14.70;99.90
46590;DHT22;32313;48.722;9.362;2023-05-10T13:44:35;15.00;99.90
46590;DHT22;32313;48.722;9.362;2023-05-10T13:47:01;15.30;99.90
46590;DHT22;32313;48.722;9.362;2023-05-10T13:49:27;15.70;99.90
46590;DHT22;32313;48.722;9.362;2023-05-10T13:51:52;15.90;99.90
46590;DHT22;32313;48.722;9.362;2023-05-10T13:54:18;16.20;99.90
46590;DHT22;32313;48.722;9.362;2023-05-10T13:56:45;16.40;99.90
46590;DHT22;32313;48.722;9.362;2023-05-10T13:59:12;16.60;99.90
46590;DHT22;32313;48.722;9.362;2023-05-10T14:01:40;16.70;99.90
46590;DHT22;32313;48.722;9.362;2023-05-10T14:04:06;17.00;99.90
46590;DHT22;32313;48.722;9.362;2023-05-10T14:06:36;17.00;99.90
46590;DHT22;32313;48.722;9.362;2023-05-10T14:09:06;17.00;99.90
46590;DHT22;32313;48.722;9.362;2023-05-10T14:11:32;17.00;99.90
46590;DHT22;32313;48.722;9.362;2023-05-10T14:13:58;17.10;99.90
46590;DHT22;32313;48.722;9.362;2023-05-10T14:16:24;17.20;99.90
46590;DHT22;32313;48.722;9.362;2023-05-10T14:18:50;17.20;99.90
46590;DHT22;32313;48.722;9.362;2023-05-10T14:21:15;17.10;99.90
46590;DHT22;32313;48.722;9.362;2023-05-10T14:23:41;17.00;99.90
46590;DHT22;32313;48.722;9.362;2023-05-10T14:26:06;17.00;99.90
46590;DHT22;32313;48.722;9.362;2023-05-10T14:28:33;17.00;99.90
46590;DHT22;32313;48.722;9.362;2023-05-10T14:30:58;17.20;99.90
46590;DHT22;32313;48.722;9.362;2023-05-10T14:33:24;17.10;99.90
46590;DHT22;32313;48.722;9.362;2023-05-10T14:35:50;17.30;99.90
46590;DHT22;32313;48.722;9.362;2023-05-10T14:38:16;17.30;99.90
46590;DHT22;32313;48.722;9.362;2023-05-10T14:40:42;17.20;99.90
46590;DHT22;32313;48.722;9.362;2023-05-10T14:43:08;17.20;99.90
46590;DHT22;32313;48.722;9.362;2023-05-10T14:45:34;17.20;99.90
46590;DHT22;32313;48.722;9.362;2023-05-10T14:48:00;17.30;99.90
46590;DHT22;32313;48.722;9.362;2023-05-10T14:50:26;17.20;99.90
46590;DHT22;32313;48.722;9.362;2023-05-10T14:52:51;17.10;99.90
46590;DHT22;32313;48.722;9.362;2023-05-10T14:55:17;17.00;99.90
46590;DHT22;32313;48.722;9.362;2023-05-10T14:57:42;17.10;99.90
46590;DHT22;32313;48.722;9.362;2023-05-10T15:00:10;17.10;99.90
46590;DHT22;32313;48.722;9.362;2023-05-10T15:02:35;17.00;99.90
46590;DHT22;32313;48.722;9.362;2023-05-10T15:05:02;16.90;99.90
46590;DHT22;32313;48.722;9.362;2023-05-10T15:07:27;16.90;99.90
46590;DHT22;32313;48.722;9.362;2023-05-10T15:09:53;16.90;99.90
46590;DHT22;32313;48.722;9.362;2023-05-10T15:12:19;16.90;99.90
46590;DHT22;32313;48.722;9.362;2023-05-10T15:14:45;17.00;99.90
46590;DHT22;32313;48.722;9.362;2023-05-10T15:17:11;17.00;99.90
46590;DHT22;32313;48.722;9.362;2023-05-10T15:19:37;16.90;99.90
46590;DHT22;32313;48.722;9.362;2023-05-10T15:22:04;16.90;99.90
46590;DHT22;32313;48.722;9.362;2023-05-10T15:24:30;16.80;99.90
46590;DHT22;32313;48.722;9.362;2023-05-10T15:26:56;16.60;99.90
46590;DHT22;32313;48.722;9.362;2023-05-10T15:29:23;16.60;99.90
46590;DHT22;32313;48.722;9.362;2023-05-10T15:31:50;16.60;99.90
46590;DHT22;32313;48.722;9.362;2023-05-10T15:34:17;16.50;99.90
46590;DHT22;32313;48.722;9.362;2023-05-10T15:36:44;16.40;99.90
46590;DHT22;32313;48.722;9.362;2023-05-10T15:39:10;16.50;99.90
46590;DHT22;32313;48.722;9.362;2023-05-10T15:41:36;16.50;99.90
46590;DHT22;32313;48.722;9.362;2023-05-10T15:44:02;16.50;99.90
46590;DHT22;32313;48.722;9.362;2023-05-10T15:46:28;16.60;99.90
46590;DHT22;32313;48.722;9.362;2023-05-10T15:48:55;16.60;99.90
46590;DHT22;32313;48.722;9.362;2023-05-10T15:51:22;16.60;99.90
46590;DHT22;32313;48.722;9.362;2023-05-10T15:53:47;16.60;99.90
46590;DHT22;32313;48.722;9.362;2023-05-10T15:56:13;16.70;99.90
46590;DHT22;32313;48.722;9.362;2023-05-10T15:58:40;16.70;99.90